Time;durP1;ratioP1;P1;durP2;ratioP2;P2;SDS_P1;SDS_P2;PMS_P1;PMS_P2;Temp;Humidity;BMP_temperature;BMP_pressure;BME280_temperature;BME280_humidity;BME280_pressure;Samples;Min_cycle;Max_cycle;Signal;HPM_P1;HPM_P2
2022/03/21 00:00:34;;;;;;;33.90;18.15;;;9.00;99.90;;;;;;5109963;28;20475;-60
2022/03/21 00:03:00;;;;;;;31.92;17.58;;;9.00;99.90;;;;;;5109748;28;20035;-61
2022/03/21 00:05:29;;;;;;;30.60;17.58;;;9.00;99.90;;;;;;5089780;28;20512;-62
2022/03/21 00:07:54;;;;;;;28.17;16.63;;;8.90;99.90;;;;;;5089979;28;20549;-63
2022/03/21 00:10:20;;;;;;;30.75;17.63;;;8.90;99.90;;;;;;5108136;28;20138;-60
2022/03/21 00:12:45;;;;;;;30.33;17.27;;;8.90;99.90;;;;;;5089826;28;20031;-62
2022/03/21 00:15:11;;;;;;;27.63;16.50;;;8.90;99.90;;;;;;5089840;28;20062;-62
2022/03/21 00:17:41;;;;;;;31.35;17.00;;;8.90;99.90;;;;;;5108110;28;20131;-61
2022/03/21 00:20:11;;;;;;;29.98;18.13;;;8.90;99.90;;;;;;5090759;28;20024;-64
2022/03/21 00:22:37;;;;;;;32.13;18.90;;;9.00;99.90;;;;;;5091059;28;20031;-64
2022/03/21 00:25:08;;;;;;;32.00;19.20;;;9.00;99.90;;;;;;5109047;28;20032;-63
2022/03/21 00:27:35;;;;;;;29.30;18.52;;;9.00;99.90;;;;;;5109636;28;20076;-61
2022/03/21 00:30:01;;;;;;;32.17;19.90;;;8.90;99.90;;;;;;5091003;28;20030;-61
2022/03/21 00:32:27;;;;;;;32.95;19.63;;;8.90;99.90;;;;;;5109087;28;20051;-61
2022/03/21 00:34:53;;;;;;;33.92;20.35;;;8.90;99.90;;;;;;5108824;28;20059;-60
2022/03/21 00:37:19;;;;;;;35.13;21.25;;;8.90;99.90;;;;;;5109335;28;20028;-62
2022/03/21 00:39:45;;;;;;;38.55;21.27;;;8.90;99.90;;;;;;5108351;28;20475;-60
2022/03/21 00:42:11;;;;;;;37.80;22.13;;;8.90;99.90;;;;;;5108590;28;20039;-61
2022/03/21 00:44:37;;;;;;;34.33;20.75;;;8.90;99.90;;;;;;5109157;28;20039;-63
2022/03/21 00:47:04;;;;;;;36.45;22.52;;;8.90;99.90;;;;;;5108779;28;20020;-60
2022/03/21 00:49:30;;;;;;;38.88;21.50;;;8.90;99.90;;;;;;5108358;28;20320;-60
2022/03/21 00:51:55;;;;;;;37.03;21.55;;;8.90;99.90;;;;;;5113612;22;20048;-63
2022/03/21 00:54:21;;;;;;;38.17;22.35;;;8.90;99.90;;;;;;5090843;28;20047;-64
2022/03/21 00:56:46;;;;;;;37.33;23.42;;;8.80;99.90;;;;;;5092588;28;20388;-64
2022/03/21 00:59:12;;;;;;;38.13;23.58;;;8.80;99.90;;;;;;5074555;28;20028;-65
2022/03/21 01:01:38;;;;;;;36.65;23.67;;;8.80;99.90;;;;;;5074619;28;20488;-64
2022/03/21 01:04:04;;;;;;;39.85;23.63;;;8.80;99.90;;;;;;5092604;28;20231;-64
2022/03/21 01:06:29;;;;;;;38.88;24.77;;;8.80;99.90;;;;;;5074545;28;20016;-63
2022/03/21 01:08:55;;;;;;;40.47;24.80;;;8.80;99.90;;;;;;5074251;28;20020;-64
2022/03/21 01:11:22;;;;;;;44.13;24.60;;;8.70;99.90;;;;;;5092741;28;20019;-65
2022/03/21 01:13:48;;;;;;;41.45;23.85;;;8.70;99.90;;;;;;5074444;28;20024;-64
2022/03/21 01:16:15;;;;;;;36.00;23.45;;;8.70;99.90;;;;;;5092459;28;20020;-64
2022/03/21 01:18:42;;;;;;;36.88;24.17;;;8.60;99.90;;;;;;5092251;28;20069;-63
2022/03/21 01:21:07;;;;;;;38.88;23.27;;;8.60;99.90;;;;;;5074389;28;20052;-64
2022/03/21 01:23:33;;;;;;;36.80;23.98;;;8.60;99.90;;;;;;5092577;28;20507;-64
2022/03/21 01:25:59;;;;;;;38.65;24.60;;;8.50;99.90;;;;;;5092546;28;20073;-64
2022/03/21 01:28:25;;;;;;;38.72;22.33;;;8.50;99.90;;;;;;5092268;28;20095;-64
2022/03/21 01:30:50;;;;;;;35.05;22.73;;;8.50;99.90;;;;;;5092065;28;20028;-64
2022/03/21 01:33:16;;;;;;;40.50;24.13;;;8.50;99.90;;;;;;5074291;28;20495;-65
2022/03/21 01:35:41;;;;;;;41.35;22.95;;;8.50;99.90;;;;;;5092050;28;20387;-64
2022/03/21 01:38:07;;;;;;;38.05;22.83;;;8.50;99.90;;;;;;5074343;28;20028;-64
2022/03/21 01:40:32;;;;;;;37.70;22.50;;;8.50;99.90;;;;;;5092018;28;20028;-63
2022/03/21 01:42:58;;;;;;;34.90;21.95;;;8.50;99.90;;;;;;5092069;28;20035;-64
2022/03/21 01:45:28;;;;;;;35.85;22.80;;;8.50;99.90;;;;;;5092329;28;20468;-63
2022/03/21 01:47:54;;;;;;;34.80;20.30;;;8.50;99.90;;;;;;5074073;28;20024;-63
2022/03/21 01:50:20;;;;;;;38.17;21.70;;;8.50;99.90;;;;;;5073887;28;20036;-64
2022/03/21 01:52:46;;;;;;;37.78;22.25;;;8.50;99.90;;;;;;5077413;28;20407;-62
2022/03/21 01:57:59;;;;;;;38.28;22.60;;;8.60;99.90;;;;;;5095916;28;20085;-64
2022/03/21 02:00:25;;;;;;;36.42;21.90;;;8.60;99.90;;;;;;5077455;28;20035;-65
2022/03/21 02:02:51;;;;;;;31.95;20.65;;;8.60;99.90;;;;;;5095834;28;20094;-64
2022/03/21 02:05:17;;;;;;;40.10;23.10;;;8.60;99.90;;;;;;5077377;28;20392;-64
2022/03/21 02:07:43;;;;;;;40.45;23.25;;;8.60;99.90;;;;;;5095706;28;20027;-65
2022/03/21 02:10:09;;;;;;;35.55;23.08;;;8.60;99.90;;;;;;5077318;28;20411;-64
2022/03/21 02:12:35;;;;;;;42.97;24.20;;;8.60;99.90;;;;;;5095665;28;20105;-65
2022/03/21 02:15:03;;;;;;;41.00;24.95;;;8.60;99.90;;;;;;5095496;28;20024;-65
2022/03/21 02:17:32;;;;;;;37.28;23.98;;;8.60;99.90;;;;;;5095678;28;20024;-62
2022/03/21 02:20:02;;;;;;;39.72;24.88;;;8.60;99.90;;;;;;5076542;28;20024;-64
2022/03/21 02:22:48;;;;;;;44.55;25.55;;;8.60;99.90;;;;;;5095301;28;20031;-63
2022/03/21 02:25:30;;;;;;;40.40;23.92;;;8.60;99.90;;;;;;5095174;28;20109;-63
2022/03/21 02:27:58;;;;;;;39.38;24.80;;;8.60;99.90;;;;;;5095435;28;20038;-63
2022/03/21 02:30:26;;;;;;;;;;;8.60;99.90;;;;;;5095592;28;20031;-62
2022/03/21 02:32:53;;;;;;;39.42;23.08;;;8.60;99.90;;;;;;5095527;28;19904;-63
2022/03/21 02:35:20;;;;;;;41.20;23.42;;;8.60;99.90;;;;;;5077116;28;20031;-63
2022/03/21 02:37:46;;;;;;;39.45;23.02;;;8.60;99.90;;;;;;5095508;28;20031;-61
2022/03/21 02:40:12;;;;;;;42.50;26.13;;;8.50;99.90;;;;;;5095650;28;20043;-64
2022/03/21 02:42:37;;;;;;;40.72;26.10;;;8.50;99.90;;;;;;5095583;28;20524;-64
2022/03/21 02:45:04;;;;;;;42.75;25.95;;;8.50;99.90;;;;;;5077086;28;20077;-64
2022/03/21 02:47:30;;;;;;;42.20;26.98;;;8.50;99.90;;;;;;5077331;28;20046;-62
2022/03/21 02:49:59;;;;;;;42.95;27.58;;;8.50;99.90;;;;;;5095336;28;20024;-64
2022/03/21 02:52:28;;;;;;;44.13;27.75;;;8.40;99.90;;;;;;5077189;28;20034;-65
2022/03/21 02:54:53;;;;;;;44.10;28.23;;;8.40;99.90;;;;;;5094693;28;20036;-63
2022/03/21 02:57:19;;;;;;;42.00;28.08;;;8.40;99.90;;;;;;5094986;28;20036;-63
2022/03/21 02:59:45;;;;;;;44.60;29.75;;;8.40;99.90;;;;;;5095022;28;20067;-63
2022/03/21 03:02:10;;;;;;;46.63;27.55;;;8.30;99.90;;;;;;5076622;28;20020;-64
2022/03/21 03:04:36;;;;;;;42.72;29.85;;;8.30;99.90;;;;;;5094666;28;20441;-64
2022/03/21 03:07:02;;;;;;;47.75;31.33;;;8.30;99.90;;;;;;5077051;28;20020;-63
2022/03/21 03:09:27;;;;;;;43.13;27.83;;;8.30;99.90;;;;;;5094927;28;20031;-62
2022/03/21 03:11:53;;;;;;;54.20;35.30;;;8.30;99.90;;;;;;5094832;28;20020;-62
2022/03/21 03:14:19;;;;;;;42.28;28.08;;;8.20;99.90;;;;;;5094652;28;20024;-63
2022/03/21 03:16:45;;;;;;;41.78;28.92;;;8.20;99.90;;;;;;5094723;28;20031;-61
2022/03/21 03:19:11;;;;;;;44.88;29.80;;;;;;;;;;5094539;28;20027;-63
2022/03/21 03:21:42;;;;;;;47.85;29.17;;;;;;;;;;5076328;28;20414;-64
2022/03/21 03:24:09;;;;;;;45.10;29.30;;;;;;;;;;5076425;28;20024;-64
2022/03/21 03:26:35;;;;;;;48.80;29.38;;;;;;;;;;5094873;28;20032;-64
2022/03/21 03:29:01;;;;;;;46.47;29.90;;;;;;;;;;5094667;28;20074;-64
2022/03/21 03:31:27;;;;;;;44.67;28.48;;;;;;;;;;5094355;28;20062;-65
2022/03/21 03:33:54;;;;;;;46.03;30.08;;;;;;;;;;5094537;28;20016;-64
2022/03/21 03:36:20;;;;;;;41.70;25.48;;;;;;;;;;5076341;28;20582;-64
2022/03/21 03:38:47;;;;;;;47.30;28.98;;;;;;;;;;5094143;28;20028;-64
2022/03/21 03:41:13;;;;;;;46.20;30.13;;;;;;;;;;5076468;28;20023;-63
2022/03/21 03:43:39;;;;;;;43.33;27.30;;;8.10;99.90;;;;;;5094237;28;20016;-64
2022/03/21 03:46:05;;;;;;;46.67;28.15;;;7.50;99.90;;;;;;5094668;28;20495;-64
2022/03/21 03:48:31;;;;;;;49.80;29.40;;;7.40;99.90;;;;;;5094644;28;20028;-65
2022/03/21 03:50:57;;;;;;;47.88;30.75;;;7.20;99.90;;;;;;5094392;28;20020;-63
2022/03/21 03:53:23;;;;;;;45.53;28.60;;;7.20;99.90;;;;;;5094095;28;20028;-64
2022/03/21 03:55:49;;;;;;;47.90;29.02;;;7.10;99.90;;;;;;5075997;28;20514;-63
2022/03/21 03:58:15;;;;;;;45.72;26.70;;;6.90;99.90;;;;;;5094255;28;20064;-64
2022/03/21 04:00:41;;;;;;;47.45;28.20;;;6.90;99.90;;;;;;5094143;28;20054;-61
2022/03/21 04:05:52;;;;;;;47.60;29.85;;;6.70;99.90;;;;;;5094101;28;20035;-64
2022/03/21 04:08:17;;;;;;;47.65;28.50;;;6.70;99.90;;;;;;5075931;28;20396;-64
2022/03/21 04:10:44;;;;;;;48.25;29.13;;;6.60;99.90;;;;;;5094172;28;20468;-64
2022/03/21 04:13:09;;;;;;;48.50;29.92;;;6.50;99.90;;;;;;5093875;28;20070;-62
2022/03/21 04:15:35;;;;;;;48.67;31.13;;;6.50;99.90;;;;;;5092934;28;20442;-64
2022/03/21 04:18:02;;;;;;;55.00;32.88;;;6.40;99.90;;;;;;5093973;28;20107;-63
2022/03/21 04:20:31;;;;;;;55.03;31.15;;;6.40;99.90;;;;;;5093921;28;20070;-63
2022/03/21 04:23:00;;;;;;;52.10;30.20;;;6.30;99.90;;;;;;5093627;28;20107;-63
2022/03/21 04:25:26;;;;;;;43.47;27.25;;;6.30;99.90;;;;;;5093392;28;20388;-64
2022/03/21 04:27:52;;;;;;;49.95;30.27;;;6.20;99.90;;;;;;5074696;28;20027;-64
2022/03/21 04:30:20;;;;;;;48.92;28.95;;;6.20;99.90;;;;;;5093224;28;20028;-64
2022/03/21 04:32:46;;;;;;;48.00;30.85;;;6.10;99.90;;;;;;5093321;28;20028;-63
2022/03/21 04:35:12;;;;;;;51.97;29.35;;;6.10;99.90;;;;;;5093408;28;20066;-64
2022/03/21 04:37:39;;;;;;;47.13;30.02;;;6.10;99.90;;;;;;5093515;28;20072;-62
2022/03/21 04:40:06;;;;;;;46.95;28.98;;;6.00;99.90;;;;;;5093202;28;20032;-64
2022/03/21 04:42:32;;;;;;;51.40;30.60;;;6.00;99.90;;;;;;5093377;28;20023;-64
2022/03/21 04:44:58;;;;;;;49.65;29.45;;;5.90;99.90;;;;;;5092990;28;20119;-64
2022/03/21 04:47:23;;;;;;;48.53;28.92;;;5.90;99.90;;;;;;5093704;28;20071;-63
2022/03/21 04:49:49;;;;;;;46.53;29.20;;;5.90;99.90;;;;;;5093177;28;20016;-64
2022/03/21 04:52:15;;;;;;;49.80;30.52;;;5.80;99.90;;;;;;5092933;28;20032;-64
2022/03/21 04:54:41;;;;;;;53.40;29.75;;;5.80;99.90;;;;;;5093213;28;20078;-63
2022/03/21 04:57:08;;;;;;;53.25;31.00;;;5.80;99.90;;;;;;5093526;28;20036;-64
2022/03/21 04:59:34;;;;;;;46.07;29.33;;;5.80;99.90;;;;;;5093176;28;20076;-64
2022/03/21 05:02:00;;;;;;;52.97;30.35;;;5.80;99.90;;;;;;5093181;28;20023;-64
2022/03/21 05:04:26;;;;;;;53.70;30.83;;;5.80;99.90;;;;;;5092696;28;20031;-63
2022/03/21 05:06:54;;;;;;;50.42;31.13;;;5.90;99.90;;;;;;5074882;28;20047;-64
2022/03/21 05:09:20;;;;;;;47.03;30.20;;;5.80;99.90;;;;;;5092408;28;20024;-65
2022/03/21 05:11:46;;;;;;;49.67;31.58;;;5.80;99.90;;;;;;5092602;28;20020;-65
2022/03/21 05:14:11;;;;;;;49.00;30.73;;;5.70;99.90;;;;;;5092503;28;20020;-64
2022/03/21 05:16:38;;;;;;;50.65;32.33;;;5.70;99.90;;;;;;5093079;28;20028;-62
2022/03/21 05:19:04;;;;;;;50.17;30.50;;;5.70;99.90;;;;;;5092694;28;20035;-68
2022/03/21 05:21:30;;;;;;;50.33;31.50;;;5.70;99.90;;;;;;5092903;28;20020;-67
2022/03/21 05:32:08;;;;;;;50.72;33.83;;;5.70;99.90;;;;;;5092722;28;20162;-63
2022/03/21 05:37:18;;;;;;;50.35;32.75;;;5.80;99.90;;;;;;5093015;28;20035;-64
2022/03/21 05:42:28;;;;;;;56.65;32.65;;;5.80;99.90;;;;;;5092570;28;20077;-63
2022/03/21 05:44:53;;;;;;;49.85;28.75;;;5.80;99.90;;;;;;5092637;28;20040;-68
2022/03/21 05:47:20;;;;;;;48.33;28.42;;;5.90;99.90;;;;;;5092629;28;20020;-63
2022/03/21 05:49:45;;;;;;;50.65;32.00;;;6.10;99.90;;;;;;5074424;28;20495;-62
2022/03/21 05:52:11;;;;;;;51.83;30.27;;;6.20;99.90;;;;;;5092041;28;20040;-64
2022/03/21 05:54:37;;;;;;;50.13;30.83;;;6.40;99.90;;;;;;5074703;28;20024;-63
2022/03/21 05:57:03;;;;;;;46.70;28.63;;;6.40;99.90;;;;;;5074434;28;20028;-62
2022/03/21 06:02:12;;;;;;;50.75;31.38;;;6.50;99.90;;;;;;5092194;28;20035;-64
2022/03/21 06:04:38;;;;;;;49.83;30.30;;;6.30;99.90;;;;;;5091815;28;20472;-63
2022/03/21 06:07:04;;;;;;;49.83;30.55;;;6.20;99.90;;;;;;5091961;28;20028;-63
2022/03/21 06:09:30;;;;;;;48.47;30.83;;;6.10;99.90;;;;;;5091725;28;20020;-64
2022/03/21 06:11:55;;;;;;;56.05;30.35;;;6.00;99.90;;;;;;5091913;28;20020;-63
2022/03/21 06:14:21;;;;;;;48.00;28.90;;;6.00;99.90;;;;;;5092362;28;20066;-65
2022/03/21 06:16:48;;;;;;;47.05;28.92;;;6.10;99.90;;;;;;5073701;28;20031;-63
2022/03/21 06:19:14;;;;;;;50.85;30.48;;;6.20;99.90;;;;;;5091925;28;20400;-64
2022/03/21 06:21:40;;;;;;;52.33;30.77;;;6.20;99.90;;;;;;5091333;28;20039;-62
2022/03/21 06:24:08;;;;;;;45.90;28.80;;;6.30;99.90;;;;;;5091742;28;20024;-63
2022/03/21 06:26:34;;;;;;;50.15;29.95;;;6.40;99.90;;;;;;5091791;28;20019;-63
2022/03/21 06:28:59;;;;;;;50.05;30.48;;;6.40;99.90;;;;;;5091408;28;20020;-63
2022/03/21 06:31:25;;;;;;;49.25;30.55;;;6.40;99.90;;;;;;5091723;28;20028;-62
2022/03/21 06:33:51;;;;;;;49.95;32.58;;;6.50;99.90;;;;;;5091614;28;20020;-63
2022/03/21 06:36:16;;;;;;;53.97;31.27;;;6.60;99.90;;;;;;5091340;28;20020;-62
2022/03/21 06:38:43;;;;;;;50.88;31.33;;;6.60;99.90;;;;;;5093626;28;20077;-64
2022/03/21 06:41:09;;;;;;;52.60;32.10;;;6.70;99.90;;;;;;5094910;28;20016;-64
2022/03/21 06:43:35;;;;;;;50.92;32.47;;;6.70;99.90;;;;;;5094861;28;20103;-64
2022/03/21 06:46:00;;;;;;;51.33;31.60;;;6.80;99.90;;;;;;5095142;28;20660;-62
2022/03/21 06:48:29;;;;;;;52.95;30.75;;;6.90;99.90;;;;;;5076764;28;20126;-65
2022/03/21 06:50:55;;;;;;;54.90;30.58;;;6.90;99.90;;;;;;5094345;28;20484;-63
2022/03/21 06:53:22;;;;;;;49.08;29.92;;;6.90;99.90;;;;;;5077737;28;20063;-62
2022/03/21 06:55:47;;;;;;;45.28;28.73;;;6.90;99.90;;;;;;5094955;28;20081;-63
2022/03/21 06:58:14;;;;;;;49.80;30.42;;;6.90;99.90;;;;;;5076853;28;20020;-63
2022/03/21 07:00:44;;;;;;;45.85;29.10;;;7.00;99.90;;;;;;5094469;28;20038;-64
2022/03/21 07:03:10;;;;;;;49.33;29.02;;;7.00;99.90;;;;;;5094725;28;20059;-64
2022/03/21 07:05:37;;;;;;;53.00;29.27;;;7.10;99.90;;;;;;5093840;28;20050;-64
2022/03/21 07:08:06;;;;;;;48.22;28.85;;;7.20;99.90;;;;;;5094716;28;20498;-64
2022/03/21 07:10:35;;;;;;;45.90;27.83;;;7.30;99.90;;;;;;5094399;28;20491;-64
2022/03/21 07:13:04;;;;;;;45.55;28.17;;;7.40;99.90;;;;;;5076163;28;20488;-65
2022/03/21 07:15:30;;;;;;;45.60;27.95;;;7.50;99.90;;;;;;5094285;28;20032;-65
2022/03/21 07:17:57;;;;;;;43.50;27.05;;;7.50;99.90;;;;;;5094522;28;20496;-65
2022/03/21 07:20:25;;;;;;;44.47;27.65;;;7.60;99.90;;;;;;5094243;28;20399;-63
2022/03/21 07:22:52;;;;;;;45.80;26.77;;;7.70;99.90;;;;;;5094384;28;20055;-65
2022/03/21 07:25:19;;;;;;;43.00;27.67;;;7.80;99.90;;;;;;5094153;28;20024;-63
2022/03/21 07:27:45;;;;;;;43.70;26.63;;;7.80;99.90;;;;;;5094529;28;20406;-66
2022/03/21 07:30:12;;;;;;;44.78;28.58;;;7.90;99.90;;;;;;5094261;28;20029;-65
2022/03/21 07:32:38;;;;;;;48.67;27.27;;;7.90;99.90;;;;;;5094392;28;20023;-64
2022/03/21 07:35:04;;;;;;;42.50;25.85;;;8.00;99.90;;;;;;5094054;28;20032;-65
2022/03/21 07:37:50;;;;;;;45.42;26.33;;;8.10;99.90;;;;;;5094138;28;20028;-64
2022/03/21 07:40:16;;;;;;;39.83;24.70;;;8.20;99.90;;;;;;5075283;28;20081;-65
2022/03/21 07:42:44;;;;;;;45.42;28.77;;;8.30;99.90;;;;;;5093849;28;20028;-65
2022/03/21 07:47:55;;;;;;;36.75;25.13;;;8.50;99.90;;;;;;5094436;28;20031;-65
2022/03/21 07:50:25;;;;;;;40.15;24.45;;;8.60;99.90;;;;;;5093608;28;20061;-65
2022/03/21 07:52:54;;;;;;;41.83;24.73;;;8.70;99.90;;;;;;5093816;28;20043;-66
2022/03/21 07:55:21;;;;;;;39.78;26.17;;;8.80;99.90;;;;;;5093831;28;20051;-63
2022/03/21 07:57:46;;;;;;;37.95;24.02;;;8.80;99.90;;;;;;5093912;28;20024;-64
2022/03/21 08:00:13;;;;;;;42.05;24.70;;;8.90;99.90;;;;;;5075610;28;20077;-63
2022/03/21 08:02:39;;;;;;;36.58;23.00;;;9.00;99.90;;;;;;5094083;28;20028;-63
2022/03/21 08:05:05;;;;;;;36.17;23.42;;;9.20;99.90;;;;;;5093014;28;20079;-64
2022/03/21 08:07:35;;;;;;;34.33;22.30;;;9.30;99.90;;;;;;5094167;28;20024;-65
2022/03/21 08:10:02;;;;;;;32.25;22.00;;;;;;;;;;5093651;28;20081;-62
2022/03/21 08:12:28;;;;;;;34.20;20.65;;;;;;;;;;5084581;28;20020;-63
2022/03/21 08:14:58;;;;;;;34.28;22.05;;;;;;;;;;5081462;28;20431;-63
2022/03/21 08:17:26;;;;;;;32.00;21.17;;;;;;;;;;5081905;28;20024;-64
2022/03/21 08:19:52;;;;;;;35.33;23.27;;;;;;;;;;5073470;28;20020;-65
2022/03/21 08:22:19;;;;;;;31.92;20.98;;;;;;;;;;5055503;28;20495;-64
2022/03/21 08:24:46;;;;;;;31.63;20.63;;;;;;;;;;5072416;28;20112;-62
2022/03/21 08:27:12;;;;;;;33.28;21.75;;;;;;;;;;5073301;28;20056;-64
2022/03/21 08:29:39;;;;;;;32.25;21.25;;;9.40;99.90;;;;;;5055152;28;20027;-63
2022/03/21 08:32:06;;;;;;;31.50;20.90;;;10.30;99.90;;;;;;5073081;28;20027;-63
2022/03/21 08:34:32;;;;;;;33.72;21.67;;;10.40;99.90;;;;;;5073859;28;20028;-64
2022/03/21 08:36:57;;;;;;;34.60;22.33;;;10.40;99.90;;;;;;5072802;28;20103;-63
2022/03/21 08:39:23;;;;;;;31.90;20.55;;;10.50;99.90;;;;;;5073229;28;20044;-63
2022/03/21 08:41:48;;;;;;;32.17;22.58;;;10.60;99.90;;;;;;5072938;28;20508;-68
2022/03/21 08:44:14;;;;;;;34.20;20.25;;;10.70;99.90;;;;;;5072983;28;20429;-65
2022/03/21 08:46:40;;;;;;;32.90;20.40;;;10.70;99.90;;;;;;5072322;28;20705;-64
2022/03/21 08:49:23;;;;;;;30.98;20.45;;;10.90;99.90;;;;;;5071803;28;20012;-64
2022/03/21 08:51:49;;;;;;;31.23;19.85;;;11.00;99.90;;;;;;5072026;28;20021;-64
2022/03/21 08:54:15;;;;;;;30.70;20.02;;;11.20;99.50;;;;;;5071956;28;20028;-65
2022/03/21 08:56:41;;;;;;;33.67;19.50;;;11.20;98.80;;;;;;5072163;28;20050;-66
2022/03/21 08:59:07;;;;;;;32.28;20.95;;;11.30;98.80;;;;;;5071935;28;20122;-64
2022/03/21 09:01:32;;;;;;;28.58;18.35;;;11.40;98.80;;;;;;5071523;28;20054;-63
2022/03/21 09:04:01;;;;;;;32.60;21.00;;;11.50;98.00;;;;;;5071996;28;20104;-63
2022/03/21 09:06:27;;;;;;;30.20;19.33;;;11.70;96.80;;;;;;5072068;28;20017;-63
2022/03/21 09:08:53;;;;;;;28.60;18.88;;;11.70;95.50;;;;;;5071818;28;20051;-63
2022/03/21 09:11:19;;;;;;;28.55;18.38;;;11.90;95.10;;;;;;5072189;28;20029;-62
2022/03/21 09:13:46;;;;;;;31.38;17.95;;;12.00;94.60;;;;;;5089430;28;20471;-63
2022/03/21 09:16:19;;;;;;;29.25;19.08;;;12.10;93.20;;;;;;5092712;28;20032;-68
2022/03/21 09:18:44;;;;;;;28.52;18.90;;;12.20;93.00;;;;;;5092252;28;20032;-63
2022/03/21 09:21:11;;;;;;;29.48;20.00;;;12.30;93.10;;;;;;5092158;28;20383;-61
2022/03/21 09:23:38;;;;;;;29.38;19.13;;;12.30;93.20;;;;;;5092397;28;20035;-63
2022/03/21 09:26:06;;;;;;;28.65;17.83;;;12.40;92.70;;;;;;5073498;28;20571;-62
2022/03/21 09:28:32;;;;;;;29.35;19.85;;;12.40;91.80;;;;;;5092295;28;20059;-61
2022/03/21 09:30:59;;;;;;;30.55;19.23;;;12.40;91.90;;;;;;5092161;28;20035;-61
2022/03/21 09:33:25;;;;;;;30.92;19.20;;;12.50;92.40;;;;;;5073998;28;20634;-61
2022/03/21 09:35:50;;;;;;;28.58;19.55;;;12.60;92.20;;;;;;5092110;28;20115;-59
2022/03/21 09:38:17;;;;;;;28.00;18.55;;;12.70;92.00;;;;;;5074071;28;20418;-58
2022/03/21 09:40:43;;;;;;;27.48;18.92;;;12.80;92.20;;;;;;5087865;28;20035;-59
2022/03/21 09:43:10;;;;;;;30.90;20.27;;;12.90;92.30;;;;;;5089898;28;20063;-62
2022/03/21 09:45:36;;;;;;;28.40;19.55;;;13.00;91.30;;;;;;5074106;28;20396;-61
2022/03/21 09:48:08;;;;;;;28.42;20.48;;;13.00;91.10;;;;;;5092601;28;20016;-61
2022/03/21 09:50:36;;;;;;;34.22;21.55;;;13.00;90.70;;;;;;5092008;28;20483;-59
2022/03/21 09:53:03;;;;;;;28.90;19.90;;;13.10;91.00;;;;;;5092017;28;20547;-63
2022/03/21 09:55:29;;;;;;;28.85;20.20;;;13.20;91.10;;;;;;5091716;28;20039;-61
2022/03/21 09:57:55;;;;;;;30.00;19.38;;;13.30;90.70;;;;;;5073569;28;20032;-61
2022/03/21 10:00:21;;;;;;;27.10;18.25;;;13.30;90.50;;;;;;5091865;28;20032;-63
2022/03/21 10:02:47;;;;;;;27.88;19.63;;;;;;;;;;5091445;28;20035;-61
2022/03/21 10:05:35;;;;;;;28.52;20.15;;;13.40;91.20;;;;;;4736534;28;10000440;-65
2022/03/21 10:08:24;;;;;;;27.97;19.17;;;13.70;90.00;;;;;;5081240;28;20099;-65
2022/03/21 10:11:01;;;;;;;31.40;20.85;;;13.80;89.80;;;;;;5065444;28;20044;-65
2022/03/21 10:13:35;;;;;;;27.65;18.77;;;13.90;89.20;;;;;;5072537;28;20059;-63
2022/03/21 10:16:13;;;;;;;27.75;18.10;;;14.10;89.30;;;;;;5093298;28;20124;-65
2022/03/21 10:18:40;;;;;;;29.83;20.48;;;;;;;;;;5075128;28;20400;-65
2022/03/21 10:21:11;;;;;;;30.13;20.80;;;14.20;88.20;;;;;;5074990;28;20024;-64
2022/03/21 10:23:37;;;;;;;28.25;19.80;;;14.60;88.40;;;;;;5077577;28;20060;-64
2022/03/21 10:26:30;;;;;;;28.60;19.77;;;14.60;86.70;;;;;;5072527;28;20075;-64
2022/03/21 10:28:58;;;;;;;31.23;21.00;;;14.50;86.70;;;;;;5072295;28;20102;-64
2022/03/21 10:31:39;;;;;;;29.08;19.58;;;14.40;86.20;;;;;;5073026;28;20127;-63
2022/03/21 10:34:15;;;;;;;32.47;21.25;;;14.70;86.70;;;;;;5073796;28;20028;-64
2022/03/21 10:36:59;;;;;;;30.95;19.77;;;14.60;86.20;;;;;;5073153;28;20026;-65
2022/03/21 10:39:26;;;;;;;30.77;20.60;;;;;;;;;;5079705;28;20095;-65
2022/03/21 10:41:56;;;;;;;28.88;20.50;;;;;;;;;;5094279;28;20028;-63
2022/03/21 10:44:22;;;;;;;31.70;20.85;;;;;;;;;;5094888;28;20043;-63
2022/03/21 10:46:52;;;;;;;34.40;21.35;;;;;;;;;;5076579;28;20020;-66
2022/03/21 10:49:27;;;;;;;31.75;20.95;;;;;;;;;;5095000;28;20046;-66
2022/03/21 10:51:54;;;;;;;30.15;21.10;;;;;;;;;;5095279;28;20101;-65
2022/03/21 10:55:03;;;;;;;31.52;20.63;;;15.00;86.70;;;;;;5076775;28;20036;-64
2022/03/21 10:57:37;;;;;;;28.75;19.83;;;15.70;82.50;;;;;;5032314;28;20029;-65
2022/03/21 11:00:11;;;;;;;30.23;20.52;;;15.90;82.60;;;;;;5015722;28;20029;-65
2022/03/21 11:02:49;;;;;;;32.10;21.55;;;15.90;80.90;;;;;;5070612;28;20445;-65
2022/03/21 11:05:17;;;;;;;30.40;21.30;;;15.90;81.10;;;;;;5095058;28;20032;-63
2022/03/21 11:07:43;;;;;;;28.33;19.48;;;16.10;80.60;;;;;;5094864;28;20369;-65
2022/03/21 11:10:10;;;;;;;29.33;20.67;;;16.30;82.00;;;;;;5094494;28;20036;-65
2022/03/21 11:12:38;;;;;;;30.08;20.98;;;16.50;80.40;;;;;;5094365;28;20025;-65
2022/03/21 11:15:06;;;;;;;29.90;20.98;;;16.90;79.30;;;;;;5094422;28;20024;-65
2022/03/21 11:17:32;;;;;;;;;;;17.50;78.30;;;;;;5094768;28;20020;-65
2022/03/21 11:20:00;;;;;;;31.48;21.38;;;17.70;75.80;;;;;;5094737;28;19915;-65
2022/03/21 11:22:28;;;;;;;31.20;20.83;;;18.40;76.70;;;;;;5094329;28;20016;-65
2022/03/21 11:24:59;;;;;;;34.10;24.02;;;19.20;73.30;;;;;;5093607;28;20085;-65
2022/03/21 11:28:04;;;;;;;36.25;22.42;;;19.80;71.70;;;;;;5076149;28;20066;-65
2022/03/21 11:30:41;;;;;;;30.45;22.80;;;19.50;71.50;;;;;;5063289;28;20446;-65
2022/03/21 11:33:10;;;;;;;32.40;23.98;;;20.20;69.50;;;;;;5094031;28;20102;-65
2022/03/21 11:35:37;;;;;;;30.40;23.90;;;21.10;69.50;;;;;;5093925;28;20039;-65
2022/03/21 11:38:27;;;;;;;29.80;23.35;;;21.80;68.10;;;;;;5094451;28;20060;-64
2022/03/21 11:41:10;;;;;;;29.92;24.08;;;22.60;65.10;;;;;;5094134;28;20102;-65
2022/03/21 11:43:38;;;;;;;30.77;22.92;;;23.00;63.10;;;;;;5093884;28;20028;-65
2022/03/21 11:46:20;;;;;;;36.65;25.92;;;23.50;61.70;;;;;;5093725;28;20035;-64
2022/03/21 11:48:47;;;;;;;33.67;25.42;;;23.40;59.90;;;;;;5093917;28;20044;-63
2022/03/21 11:51:16;;;;;;;34.78;25.55;;;23.70;59.60;;;;;;5094084;28;20476;-64
2022/03/21 11:53:49;;;;;;;30.23;24.60;;;24.10;57.80;;;;;;5093498;28;20036;-62
2022/03/21 11:56:41;;;;;;;29.33;24.52;;;24.90;57.20;;;;;;5093871;28;20028;-64
2022/03/21 11:59:29;;;;;;;31.83;26.17;;;25.20;56.40;;;;;;5093621;28;20104;-64
2022/03/21 12:01:55;;;;;;;30.38;25.58;;;25.20;54.70;;;;;;5093656;28;20032;-63
2022/03/21 12:04:23;;;;;;;32.78;25.73;;;25.10;53.90;;;;;;5093538;28;20739;-64
2022/03/21 12:06:49;;;;;;;34.67;24.90;;;25.40;54.10;;;;;;5093423;28;20480;-64
2022/03/21 12:09:15;;;;;;;35.05;25.63;;;25.60;53.30;;;;;;5076252;28;20031;-65
2022/03/21 12:11:41;;;;;;;31.60;25.20;;;25.70;52.90;;;;;;5114256;28;20023;-64
2022/03/21 12:14:40;;;;;;;28.35;23.83;;;25.30;52.10;;;;;;5114050;28;20047;-65
2022/03/21 12:17:05;;;;;;;33.78;26.23;;;26.00;53.20;;;;;;4400695;28;10000741;-62
2022/03/21 12:19:50;;;;;;;32.42;26.55;;;25.30;52.20;;;;;;5090632;28;20028;-61
2022/03/21 12:22:32;;;;;;;31.73;26.52;;;25.90;52.10;;;;;;5090693;28;20024;-62
2022/03/21 12:25:05;;;;;;;31.77;25.38;;;26.50;51.40;;;;;;5091950;28;20518;-65
2022/03/21 12:27:45;;;;;;;31.60;25.05;;;26.40;51.20;;;;;;5091834;28;20073;-63
2022/03/21 12:30:30;;;;;;;31.60;25.98;;;26.40;51.40;;;;;;5091441;28;20020;-63
2022/03/21 12:33:14;;;;;;;30.83;25.75;;;25.30;50.50;;;;;;5073166;28;20145;-62
2022/03/21 12:35:41;;;;;;;30.30;25.02;;;25.00;51.80;;;;;;5090761;28;20404;-63
2022/03/21 12:38:11;;;;;;;31.83;27.13;;;25.40;51.90;;;;;;5091788;28;20024;-62
2022/03/21 12:40:38;;;;;;;32.50;25.95;;;25.60;51.10;;;;;;5073006;28;20039;-61
2022/03/21 12:43:05;;;;;;;31.94;24.60;;;25.70;50.80;;;;;;4722942;28;10001142;-61
2022/03/21 12:45:32;;;;;;;32.55;24.75;;;25.60;51.30;;;;;;5089835;28;20038;-61
2022/03/21 12:48:08;;;;;;;29.75;24.85;;;26.20;51.50;;;;;;5089942;28;20105;-62
2022/03/21 12:50:35;;;;;;;30.98;24.92;;;25.30;50.80;;;;;;5088740;28;20095;-59
2022/03/21 12:53:07;;;;;;;32.17;24.65;;;26.10;51.30;;;;;;5119840;22;20432;-63
2022/03/21 12:55:33;;;;;;;30.23;25.67;;;26.80;51.30;;;;;;5107512;28;20035;-59
2022/03/21 12:58:03;;;;;;;34.20;25.38;;;26.40;50.90;;;;;;5108590;28;20050;-60
2022/03/21 13:00:31;;;;;;;29.92;24.38;;;26.40;50.50;;;;;;5090306;28;20541;-60
2022/03/21 13:03:03;;;;;;;31.92;24.48;;;26.70;50.10;;;;;;5108530;28;20035;-59
2022/03/21 13:11:30;;;;;;;30.35;24.30;;;28.50;49.00;;;;;;5108918;28;20764;-61
2022/03/21 13:14:18;;;;;;;30.73;25.88;;;28.80;48.90;;;;;;5109746;28;20023;-62
2022/03/21 13:17:00;;;;;;;30.80;25.33;;;29.00;47.70;;;;;;5109634;28;20048;-62